Airfield :
LOGIN :

Register | Disclaimer

   EN    FR    IT 

 










Legend :    VFR   Marginal VFR   IFR   Intensive IFR   Very Intensive IFR
Visi :
Ceiling :
>= 8 km
>= 3000ft
5 to 8 km
1000 to 3000 ft
1500m to 5 km
500 to 1000 ft
800 to 1500m
200 to 500 ft
< 800m
< 200 ft
Symbols :   Thunderstorms  Fog  Heavy snow  Heavy precipitations  Wind > 20 kt
SIGMETs :     Misc.  Thunderstorms  Icing  Turbulence  Mountain Waves  Volcanic Ashes






- Airport Elevation : 62 ft
- IATA code : TAN


GMTT - Tanger Ibn Batouta

CURRENT METAR :
  • 141230Z 28007KT CAVOK 26/19 Q1015 NOSIG

EXPIRED METARs :
  • 141200Z 28007KT 240V310 CAVOK 25/19 Q1016 NOSIG
  • 141130Z 28007KT 250V340 CAVOK 26/19 Q1016 NOSIG
  • 141100Z 29007KT 260V330 CAVOK 25/19 Q1015 NOSIG
  • 141030Z 29006KT 240V310 CAVOK 25/20 Q1015 NOSIG
  • 141000Z 29007KT 260V320 CAVOK 24/20 Q1015 NOSIG
  • 140930Z 29007KT CAVOK 24/20 Q1015 NOSIG
  • 140900Z 29007KT CAVOK 24/20 Q1015 NOSIG
  • 140830Z 09004KT 030V140 CAVOK 26/17 Q1015 NOSIG

TAF TAF GMTT
Valid from the 14 at 12:00 until the 15 at 18:00 UTC


141100Z 1412/1518 28009KT CAVOK



MET'MAP, your aeronautical weather chart ! - Copyright ORBIFLY December 2007 - Disclaimer

ORBIFLY MET'MAP TEAM :

Programming & Development : Alexandra Zaïnal
Original concept : Baudouin d'Aumeries
Technical & hardware support : Manuel Goepfert
Assistance : Marc-Olivier Méhu




SOURCES & CREDITS :

   NOAA